createdAt,value
2023-10-06T00:00:31.719Z,14.26
2023-10-06T00:01:34.848Z,14.18
2023-10-06T00:02:36.852Z,14.15
2023-10-06T00:03:40.354Z,14.16
2023-10-06T00:04:42.876Z,14.21
2023-10-06T00:05:51.569Z,14.19
2023-10-06T00:06:55.421Z,14.17
2023-10-06T00:07:58.526Z,14.16
2023-10-06T00:09:00.898Z,14.13
2023-10-06T00:10:05.185Z,14.10
2023-10-06T00:11:13.088Z,14.09
2023-10-06T00:12:14.932Z,14.11
2023-10-06T00:13:20.530Z,14.14
2023-10-06T00:14:40.715Z,14.16
2023-10-06T00:15:45.039Z,14.16
2023-10-06T00:16:47.925Z,14.17
2023-10-06T00:17:50.738Z,14.17
2023-10-06T00:18:54.495Z,14.18
2023-10-06T00:19:58.308Z,14.20
2023-10-06T00:21:08.445Z,14.24
2023-10-06T00:22:10.646Z,14.25
2023-10-06T00:23:16.215Z,14.25
2023-10-06T00:24:18.253Z,14.24
2023-10-06T00:25:29.294Z,14.25
2023-10-06T00:26:31.133Z,14.28
2023-10-06T00:27:33.270Z,14.30
2023-10-06T00:28:37.617Z,14.32
2023-10-06T00:29:40.362Z,14.34
2023-10-06T00:30:42.219Z,14.35
2023-10-06T00:31:49.025Z,14.32
2023-10-06T00:32:50.946Z,14.33
2023-10-06T00:33:54.212Z,14.32
2023-10-06T00:35:18.427Z,14.34
2023-10-06T00:36:20.844Z,14.33
2023-10-06T00:37:26.136Z,14.34
2023-10-06T00:38:31.782Z,14.35
2023-10-06T00:39:34.409Z,14.36
2023-10-06T00:40:37.182Z,14.36
2023-10-06T00:41:39.213Z,14.37
2023-10-06T00:42:41.942Z,14.39
2023-10-06T00:43:46.849Z,14.39
2023-10-06T00:44:49.040Z,14.40
2023-10-06T00:45:50.789Z,14.40
2023-10-06T00:46:52.628Z,14.39
2023-10-06T00:47:55.301Z,14.39
2023-10-06T00:49:00.806Z,14.40
2023-10-06T00:50:06.961Z,14.41
2023-10-06T00:51:21.161Z,14.41
2023-10-06T00:52:23.266Z,14.41
2023-10-06T00:53:32.906Z,14.42
2023-10-06T00:54:35.410Z,14.38
2023-10-06T00:55:38.855Z,14.35
2023-10-06T00:56:40.696Z,14.31
2023-10-06T00:57:42.480Z,14.26
2023-10-06T00:58:44.661Z,14.23
2023-10-06T00:59:46.638Z,14.17
2023-10-06T01:00:48.466Z,14.14
2023-10-06T01:01:51.463Z,14.11
2023-10-06T01:02:53.430Z,14.05
2023-10-06T01:04:09.688Z,14.04
2023-10-06T01:05:11.686Z,14.05
2023-10-06T01:06:16.465Z,14.07
2023-10-06T01:07:19.092Z,14.08
2023-10-06T01:08:22.390Z,14.08
2023-10-06T01:09:31.643Z,14.06
2023-10-06T01:10:36.433Z,14.05
2023-10-06T01:11:48.624Z,14.03
2023-10-06T01:12:53.516Z,14.01
2023-10-06T01:13:59.155Z,13.98
2023-10-06T01:15:17.455Z,13.99
2023-10-06T01:16:19.684Z,14.00
2023-10-06T01:17:21.939Z,13.99
2023-10-06T01:18:28.894Z,13.98
2023-10-06T01:19:34.611Z,13.98
2023-10-06T01:20:43.033Z,13.97
2023-10-06T01:21:48.504Z,13.95
2023-10-06T01:22:57.247Z,13.95
2023-10-06T01:23:59.856Z,13.89
2023-10-06T01:25:05.914Z,13.87
2023-10-06T01:26:09.563Z,13.82
2023-10-06T01:27:12.677Z,13.79
2023-10-06T01:28:14.848Z,13.77
2023-10-06T01:29:16.723Z,13.75
2023-10-06T01:30:19.264Z,13.76
2023-10-06T01:31:21.339Z,13.77
2023-10-06T01:32:23.167Z,13.80
2023-10-06T01:33:26.442Z,13.75
2023-10-06T01:34:28.913Z,13.69
2023-10-06T01:35:35.008Z,13.68
2023-10-06T01:36:37.509Z,13.71
2023-10-06T01:37:45.372Z,13.72
2023-10-06T01:38:47.208Z,13.73
2023-10-06T01:39:49.918Z,13.72
2023-10-06T01:40:54.753Z,13.70
2023-10-06T01:41:57.361Z,13.70
2023-10-06T01:42:59.117Z,13.70
2023-10-06T01:44:01.977Z,13.67
2023-10-06T01:45:18.001Z,13.64
2023-10-06T01:46:21.273Z,13.61
2023-10-06T01:47:23.046Z,13.59
2023-10-06T01:48:24.902Z,13.60
2023-10-06T01:49:26.768Z,13.61
2023-10-06T01:50:28.773Z,13.60
2023-10-06T01:51:37.331Z,13.62
2023-10-06T01:52:41.837Z,13.62
2023-10-06T01:53:44.011Z,13.61
2023-10-06T01:54:46.422Z,13.63
2023-10-06T01:55:50.649Z,13.65
2023-10-06T01:56:55.297Z,13.65
2023-10-06T01:57:58.440Z,13.60
2023-10-06T01:59:00.409Z,13.60
2023-10-06T02:00:02.417Z,13.61
2023-10-06T02:01:07.814Z,13.65
2023-10-06T02:02:14.411Z,13.67
2023-10-06T02:03:23.018Z,13.68
2023-10-06T02:04:26.904Z,13.65
2023-10-06T02:05:29.127Z,13.65
2023-10-06T02:06:30.931Z,13.65
2023-10-06T02:07:36.927Z,13.67
2023-10-06T02:08:39.783Z,13.68
2023-10-06T02:09:41.578Z,13.69
2023-10-06T02:10:49.032Z,13.69
2023-10-06T02:11:51.195Z,13.71
2023-10-06T02:12:52.984Z,13.71
2023-10-06T02:13:54.908Z,13.72
2023-10-06T02:14:57.942Z,13.72
2023-10-06T02:16:02.879Z,13.71
2023-10-06T02:17:08.012Z,13.69
2023-10-06T02:18:14.037Z,13.64
2023-10-06T02:19:18.878Z,13.63
2023-10-06T02:20:26.728Z,13.63
2023-10-06T02:21:30.355Z,13.63
2023-10-06T02:22:32.216Z,13.63
2023-10-06T02:23:38.857Z,13.59
2023-10-06T02:24:41.050Z,13.54
2023-10-06T02:25:42.851Z,13.52
2023-10-06T02:26:46.332Z,13.51
2023-10-06T02:27:49.171Z,13.48
2023-10-06T02:28:51.116Z,13.44
2023-10-06T02:29:53.266Z,13.34
2023-10-06T02:30:56.756Z,13.26
2023-10-06T02:32:09.003Z,13.25
2023-10-06T02:33:12.724Z,13.26
2023-10-06T02:34:20.215Z,13.29
2023-10-06T02:35:22.212Z,13.31
2023-10-06T02:36:24.129Z,13.26
2023-10-06T02:37:27.067Z,13.21
2023-10-06T02:38:39.471Z,13.20
2023-10-06T02:39:44.844Z,13.22
2023-10-06T02:40:47.264Z,13.25
2023-10-06T02:41:50.428Z,13.27
2023-10-06T02:42:54.848Z,13.29
2023-10-06T02:43:57.169Z,13.30
2023-10-06T02:44:59.549Z,13.31
2023-10-06T02:46:09.348Z,13.31
2023-10-06T02:47:12.020Z,13.32
2023-10-06T02:48:18.955Z,13.29
2023-10-06T02:49:33.285Z,13.25
2023-10-06T02:50:35.554Z,13.19
2023-10-06T02:51:49.569Z,13.15
2023-10-06T02:52:55.185Z,13.09
2023-10-06T02:54:11.588Z,13.08
2023-10-06T02:55:14.597Z,13.08
2023-10-06T02:56:17.464Z,13.09
2023-10-06T02:57:22.018Z,13.10
2023-10-06T02:58:32.199Z,13.10
2023-10-06T02:59:36.086Z,13.08
2023-10-06T03:00:37.753Z,13.09
2023-10-06T03:01:40.232Z,13.09
2023-10-06T03:02:42.185Z,13.10
2023-10-06T03:03:43.954Z,13.10
2023-10-06T03:04:45.903Z,13.11
2023-10-06T03:05:54.258Z,13.10
2023-10-06T03:06:58.318Z,13.06
2023-10-06T03:08:02.340Z,13.05
2023-10-06T03:09:08.565Z,13.06
2023-10-06T03:10:11.861Z,13.09
2023-10-06T03:11:24.007Z,13.10
2023-10-06T03:12:25.683Z,13.10
2023-10-06T03:13:38.321Z,13.10
2023-10-06T03:14:40.282Z,13.10
2023-10-06T03:15:48.009Z,13.11
2023-10-06T03:16:52.982Z,13.12
2023-10-06T03:17:59.919Z,13.13
2023-10-06T03:19:02.623Z,13.14
2023-10-06T03:20:11.984Z,13.12
2023-10-06T03:21:13.735Z,13.07
2023-10-06T03:22:15.602Z,13.05
2023-10-06T03:23:37.872Z,13.04
2023-10-06T03:24:45.868Z,13.05
2023-10-06T03:25:50.734Z,13.06
2023-10-06T03:26:52.920Z,13.07
2023-10-06T03:27:55.947Z,13.08
2023-10-06T03:29:03.771Z,13.08
2023-10-06T03:30:12.945Z,13.08
2023-10-06T03:31:20.641Z,13.10
2023-10-06T03:32:34.600Z,13.11
2023-10-06T03:33:36.759Z,13.10
2023-10-06T03:34:38.611Z,13.08
2023-10-06T03:35:48.266Z,13.06
2023-10-06T03:36:53.424Z,13.05
2023-10-06T03:38:10.605Z,13.04
2023-10-06T03:39:13.073Z,13.04
2023-10-06T03:40:23.116Z,13.06
2023-10-06T03:41:33.814Z,13.06
2023-10-06T03:42:38.492Z,13.09
2023-10-06T03:43:51.841Z,13.04
2023-10-06T03:44:54.397Z,13.02
2023-10-06T03:45:56.105Z,12.99
2023-10-06T03:47:02.137Z,12.96
2023-10-06T03:48:10.012Z,12.98
2023-10-06T03:49:14.893Z,12.99
2023-10-06T03:50:17.913Z,12.92
2023-10-06T03:51:20.230Z,12.90
2023-10-06T03:52:22.041Z,12.91
2023-10-06T03:53:25.585Z,12.93
2023-10-06T03:54:27.328Z,12.95
2023-10-06T03:55:29.158Z,12.97
2023-10-06T03:56:31.721Z,12.91
2023-10-06T03:57:33.497Z,12.91
2023-10-06T03:58:35.488Z,12.90
2023-10-06T03:59:37.490Z,12.92
2023-10-06T04:00:48.946Z,12.91
2023-10-06T04:01:52.916Z,12.90
2023-10-06T04:02:55.429Z,12.88
2023-10-06T04:04:01.114Z,12.87
2023-10-06T04:05:06.583Z,12.90
2023-10-06T04:06:14.231Z,12.91
2023-10-06T04:07:17.458Z,12.91
2023-10-06T04:08:22.811Z,12.91
2023-10-06T04:09:32.245Z,12.89
2023-10-06T04:10:35.521Z,12.88
2023-10-06T04:11:37.277Z,12.84
2023-10-06T04:12:39.076Z,12.78
2023-10-06T04:13:41.167Z,12.76
2023-10-06T04:14:44.140Z,12.74
2023-10-06T04:15:53.816Z,12.71
2023-10-06T04:16:56.008Z,12.70
2023-10-06T04:17:59.054Z,12.69
2023-10-06T04:19:01.009Z,12.71
2023-10-06T04:20:07.348Z,12.72
2023-10-06T04:21:13.027Z,12.75
2023-10-06T04:22:15.400Z,12.78
2023-10-06T04:23:24.692Z,12.81
2023-10-06T04:24:26.867Z,12.84
2023-10-06T04:25:28.673Z,12.81
2023-10-06T04:26:31.734Z,12.83
2023-10-06T04:27:34.227Z,12.82
2023-10-06T04:28:36.907Z,12.85
2023-10-06T04:29:41.119Z,12.86
2023-10-06T04:30:46.600Z,12.87
2023-10-06T04:31:49.201Z,12.88
2023-10-06T04:32:51.051Z,12.88
2023-10-06T04:33:55.217Z,12.89
2023-10-06T04:34:59.025Z,12.85
2023-10-06T04:36:11.228Z,12.83
2023-10-06T04:38:16.610Z,12.80
2023-10-06T04:39:21.308Z,12.79
2023-10-06T04:40:23.256Z,12.81
2023-10-06T04:41:24.991Z,12.82
2023-10-06T04:42:26.785Z,12.85
2023-10-06T04:43:28.581Z,12.87
2023-10-06T04:44:30.431Z,12.88
2023-10-06T04:45:33.159Z,12.88
2023-10-06T04:46:36.544Z,12.90
2023-10-06T04:47:41.827Z,12.91
2023-10-06T04:48:43.719Z,12.88
2023-10-06T04:49:47.393Z,12.86
2023-10-06T04:50:51.955Z,12.80
2023-10-06T04:51:53.698Z,12.79
2023-10-06T04:52:56.408Z,12.79
2023-10-06T04:53:58.453Z,12.80
2023-10-06T04:55:00.377Z,12.79
2023-10-06T04:56:04.909Z,12.79
2023-10-06T04:57:09.763Z,12.80
2023-10-06T04:58:15.041Z,12.80
2023-10-06T04:59:17.507Z,12.77
2023-10-06T05:00:23.036Z,12.72
2023-10-06T05:01:24.863Z,12.73
2023-10-06T05:02:27.186Z,12.75
2023-10-06T05:03:29.417Z,12.75
2023-10-06T05:04:31.604Z,12.74
2023-10-06T05:05:39.226Z,12.75
2023-10-06T05:06:41.104Z,12.77
2023-10-06T05:07:42.856Z,12.79
2023-10-06T05:08:48.564Z,12.81
2023-10-06T05:09:51.094Z,12.83
2023-10-06T05:10:54.416Z,12.87
2023-10-06T05:11:58.463Z,12.87
2023-10-06T05:13:07.224Z,12.89
2023-10-06T05:14:10.407Z,12.90
2023-10-06T05:15:16.497Z,12.91
2023-10-06T05:16:20.574Z,12.84
2023-10-06T05:17:23.251Z,12.80
2023-10-06T05:18:25.860Z,12.80
2023-10-06T05:19:28.121Z,12.80
2023-10-06T05:20:34.078Z,12.82
2023-10-06T05:21:37.969Z,12.83
2023-10-06T05:22:39.766Z,12.83
2023-10-06T05:23:42.775Z,12.83
2023-10-06T05:24:44.599Z,12.84
2023-10-06T05:25:46.567Z,12.84
2023-10-06T05:26:50.615Z,12.85
2023-10-06T05:27:52.413Z,12.85
2023-10-06T05:28:54.241Z,12.85
2023-10-06T05:29:56.073Z,12.86
2023-10-06T05:30:58.164Z,12.87
2023-10-06T05:32:01.047Z,12.89
2023-10-06T05:33:04.695Z,12.88
2023-10-06T05:34:08.661Z,12.86
2023-10-06T05:35:11.907Z,12.83
2023-10-06T05:36:17.454Z,12.83
2023-10-06T05:37:22.182Z,12.82
2023-10-06T05:38:25.274Z,12.81
2023-10-06T05:39:29.368Z,12.81
2023-10-06T05:40:31.317Z,12.81
2023-10-06T05:41:33.844Z,12.84
2023-10-06T05:42:37.708Z,12.87
2023-10-06T05:43:40.687Z,12.88
2023-10-06T05:44:43.733Z,12.92
2023-10-06T05:45:58.420Z,12.93
2023-10-06T05:47:00.897Z,12.92
2023-10-06T05:48:08.436Z,12.92
2023-10-06T05:49:12.650Z,12.91
2023-10-06T05:50:28.466Z,12.92
2023-10-06T05:51:32.311Z,12.89
2023-10-06T05:52:34.075Z,12.85
2023-10-06T05:53:40.355Z,12.84
2023-10-06T05:54:42.474Z,12.84
2023-10-06T05:55:44.334Z,12.86
2023-10-06T05:56:48.633Z,12.87
2023-10-06T05:57:57.181Z,12.90
2023-10-06T05:58:59.050Z,12.88
2023-10-06T06:00:02.403Z,12.88
2023-10-06T06:01:15.902Z,12.86
2023-10-06T06:02:19.797Z,12.83
2023-10-06T06:03:27.482Z,12.80
2023-10-06T06:04:29.643Z,12.83
2023-10-06T06:05:37.310Z,12.85
2023-10-06T06:06:41.088Z,12.81
2023-10-06T06:07:43.860Z,12.80
2023-10-06T06:08:49.201Z,12.80
2023-10-06T06:09:51.527Z,12.79
2023-10-06T06:10:53.873Z,12.82
2023-10-06T06:11:55.718Z,12.86
2023-10-06T06:12:57.839Z,12.87
2023-10-06T06:14:15.259Z,12.87
2023-10-06T06:15:19.675Z,12.88
2023-10-06T06:16:23.090Z,12.91
2023-10-06T06:17:25.090Z,12.93
2023-10-06T06:18:28.937Z,12.93
2023-10-06T06:19:30.735Z,12.95
2023-10-06T06:20:32.600Z,12.94
2023-10-06T06:21:34.435Z,12.94
2023-10-06T06:22:40.009Z,12.94
2023-10-06T06:23:47.641Z,12.93
2023-10-06T06:24:51.193Z,12.96
2023-10-06T06:25:53.050Z,12.97
2023-10-06T06:26:54.881Z,12.96
2023-10-06T06:28:00.617Z,12.97
2023-10-06T06:29:04.414Z,12.98
2023-10-06T06:30:07.084Z,12.97
2023-10-06T06:31:16.159Z,12.94
2023-10-06T06:32:18.668Z,12.94
2023-10-06T06:33:24.017Z,12.97
2023-10-06T06:34:26.273Z,12.99
2023-10-06T06:35:29.568Z,13.00
2023-10-06T06:36:33.323Z,12.99
2023-10-06T06:37:35.561Z,13.02
2023-10-06T06:38:40.945Z,13.04
2023-10-06T06:39:45.985Z,13.06
2023-10-06T06:40:47.812Z,13.01
2023-10-06T06:41:49.667Z,13.02
2023-10-06T06:42:54.727Z,13.05
2023-10-06T06:43:59.941Z,13.05
2023-10-06T06:45:02.490Z,13.03
2023-10-06T06:46:04.904Z,13.02
2023-10-06T06:47:07.240Z,13.01
2023-10-06T06:48:14.876Z,13.02
2023-10-06T06:49:17.084Z,13.01
2023-10-06T06:50:19.103Z,12.99
2023-10-06T06:51:21.868Z,12.98
2023-10-06T06:52:24.033Z,13.00
2023-10-06T06:53:25.878Z,12.98
2023-10-06T06:54:28.037Z,12.98
2023-10-06T06:55:30.081Z,13.02
2023-10-06T06:56:33.118Z,13.07
2023-10-06T06:57:34.841Z,13.09
2023-10-06T06:58:38.577Z,13.06
2023-10-06T06:59:40.552Z,12.96
2023-10-06T07:00:42.543Z,12.92
2023-10-06T07:01:44.386Z,12.95
2023-10-06T07:02:51.617Z,12.97
2023-10-06T07:03:53.438Z,12.95
2023-10-06T07:04:56.622Z,12.90
2023-10-06T07:05:58.985Z,12.86
2023-10-06T07:07:02.497Z,12.79
2023-10-06T07:08:07.428Z,12.80
2023-10-06T07:09:14.291Z,12.86
2023-10-06T07:10:21.329Z,12.91
2023-10-06T07:11:23.809Z,12.97
2023-10-06T07:12:25.720Z,13.01
2023-10-06T07:13:27.839Z,13.06
2023-10-06T07:14:29.707Z,13.08
2023-10-06T07:15:31.449Z,13.05
2023-10-06T07:16:34.708Z,13.07
2023-10-06T07:17:36.504Z,13.09
2023-10-06T07:18:39.209Z,13.11
2023-10-06T07:19:41.163Z,13.10
2023-10-06T07:20:42.992Z,13.05
2023-10-06T07:21:45.529Z,13.05
2023-10-06T07:22:48.084Z,13.00
2023-10-06T07:23:53.472Z,13.00
2023-10-06T07:24:56.944Z,13.08
2023-10-06T07:25:59.431Z,13.10
2023-10-06T07:27:01.168Z,13.08
2023-10-06T07:28:02.954Z,13.12
2023-10-06T07:29:07.342Z,13.15
2023-10-06T07:30:12.562Z,13.17
2023-10-06T07:31:15.232Z,13.24
2023-10-06T07:32:17.652Z,13.28
2023-10-06T07:33:19.420Z,13.29
2023-10-06T07:34:21.411Z,13.27
2023-10-06T07:35:33.122Z,13.28
2023-10-06T07:36:37.220Z,13.31
2023-10-06T07:37:39.855Z,13.34
2023-10-06T07:38:44.949Z,13.38
2023-10-06T07:39:48.309Z,13.43
2023-10-06T07:40:50.474Z,13.46
2023-10-06T07:41:52.269Z,13.48
2023-10-06T07:42:56.627Z,13.48
2023-10-06T07:43:58.384Z,13.49
2023-10-06T07:45:00.545Z,13.47
2023-10-06T07:46:09.178Z,13.48
2023-10-06T07:47:12.086Z,13.45
2023-10-06T07:48:14.097Z,13.45
2023-10-06T07:49:15.833Z,13.47
2023-10-06T07:50:17.626Z,13.46
2023-10-06T07:51:20.492Z,13.49
2023-10-06T07:52:23.202Z,13.51
2023-10-06T07:53:25.259Z,13.53
2023-10-06T07:54:27.984Z,13.50
2023-10-06T07:55:29.816Z,13.47
2023-10-06T07:56:31.799Z,13.51
2023-10-06T07:57:34.644Z,13.56
2023-10-06T07:58:42.355Z,13.59
2023-10-06T07:59:44.257Z,13.60
2023-10-06T08:00:46.433Z,13.60
2023-10-06T08:01:49.884Z,13.61
2023-10-06T08:02:51.721Z,13.61
2023-10-06T08:03:55.170Z,13.65
2023-10-06T08:04:57.569Z,13.67
2023-10-06T08:06:02.666Z,13.70
2023-10-06T08:07:04.425Z,13.75
2023-10-06T08:08:06.455Z,13.72
2023-10-06T08:09:09.764Z,13.70
2023-10-06T08:10:16.085Z,13.72
2023-10-06T08:11:19.861Z,13.75
2023-10-06T08:12:24.614Z,13.78
2023-10-06T08:13:26.638Z,13.82
2023-10-06T08:14:29.784Z,13.84
2023-10-06T08:15:34.223Z,13.91
2023-10-06T08:16:38.619Z,13.98
2023-10-06T08:17:40.813Z,14.05
2023-10-06T08:18:42.648Z,14.10
2023-10-06T08:19:44.466Z,14.15
2023-10-06T08:20:47.438Z,14.19
2023-10-06T08:21:49.158Z,14.23
2023-10-06T08:22:50.991Z,14.27
2023-10-06T08:23:52.815Z,14.26
2023-10-06T08:24:54.800Z,14.26
2023-10-06T08:26:01.316Z,14.22
2023-10-06T08:27:04.602Z,14.16
2023-10-06T08:28:08.646Z,14.14
2023-10-06T08:29:10.538Z,14.14
2023-10-06T08:30:22.948Z,14.17
2023-10-06T08:31:26.481Z,14.23
2023-10-06T08:32:28.237Z,14.27
2023-10-06T08:33:30.875Z,14.29
2023-10-06T08:34:32.808Z,14.30
2023-10-06T08:35:34.622Z,14.36
2023-10-06T08:36:39.381Z,14.40
2023-10-06T08:37:42.742Z,14.43
2023-10-06T08:38:48.236Z,14.51
2023-10-06T08:39:50.439Z,14.58
2023-10-06T08:40:55.660Z,14.65
2023-10-06T08:41:57.536Z,14.59
2023-10-06T08:42:59.544Z,14.63
2023-10-06T08:44:03.746Z,14.66
2023-10-06T08:45:05.794Z,14.67
2023-10-06T08:46:08.406Z,14.73
2023-10-06T08:47:26.308Z,14.78
2023-10-06T08:48:33.746Z,14.83
2023-10-06T08:49:35.864Z,14.87
2023-10-06T08:50:38.779Z,14.95
2023-10-06T08:51:43.739Z,14.97
2023-10-06T08:52:51.465Z,15.02
2023-10-06T08:53:57.486Z,15.05
2023-10-06T08:55:00.350Z,15.08
2023-10-06T08:56:02.125Z,15.12
2023-10-06T08:57:04.643Z,15.18
2023-10-06T08:58:08.759Z,15.19
2023-10-06T08:59:12.641Z,15.22
2023-10-06T09:00:17.999Z,15.28
2023-10-06T09:01:19.907Z,15.33
2023-10-06T09:02:22.802Z,15.40
2023-10-06T09:03:28.226Z,15.48
2023-10-06T09:04:36.278Z,15.54
2023-10-06T09:05:41.871Z,15.58
2023-10-06T09:07:03.804Z,15.66
2023-10-06T09:08:06.748Z,15.69
2023-10-06T09:09:13.896Z,15.74
2023-10-06T09:10:18.917Z,15.85
2023-10-06T09:11:37.924Z,15.89
2023-10-06T09:12:43.880Z,15.97
2023-10-06T09:13:47.318Z,16.04
2023-10-06T09:14:55.941Z,16.10
2023-10-06T09:16:01.060Z,16.15
2023-10-06T09:17:03.188Z,16.19
2023-10-06T09:18:21.387Z,16.25
2023-10-06T09:19:23.208Z,16.30
2023-10-06T09:20:34.058Z,16.36
2023-10-06T09:21:35.845Z,16.36
2023-10-06T09:22:47.038Z,16.37
2023-10-06T09:23:50.837Z,16.41
2023-10-06T09:25:05.973Z,16.48
2023-10-06T09:26:08.871Z,16.55
2023-10-06T09:27:21.325Z,16.62
2023-10-06T09:28:23.174Z,16.65
2023-10-06T09:29:39.931Z,16.64
2023-10-06T09:30:51.643Z,16.73
2023-10-06T09:31:53.669Z,16.79
2023-10-06T09:33:06.400Z,16.85
2023-10-06T09:34:11.149Z,16.85
2023-10-06T09:35:23.766Z,16.88
2023-10-06T09:36:42.679Z,16.98
2023-10-06T09:37:48.124Z,17.09
2023-10-06T09:38:50.538Z,17.16
2023-10-06T09:40:00.061Z,17.25
2023-10-06T09:41:02.093Z,17.29
2023-10-06T09:42:07.430Z,17.36
2023-10-06T09:43:13.125Z,17.45
2023-10-06T09:44:15.489Z,17.51
2023-10-06T09:45:22.397Z,17.55
2023-10-06T09:46:27.111Z,17.63
2023-10-06T09:47:29.520Z,17.68
2023-10-06T09:48:35.412Z,17.73
2023-10-06T09:49:38.903Z,17.79
2023-10-06T09:50:42.713Z,17.87
2023-10-06T09:51:44.549Z,17.90
2023-10-06T09:52:48.709Z,17.90
2023-10-06T09:53:51.046Z,17.96
2023-10-06T09:54:56.015Z,18.05
2023-10-06T09:55:59.391Z,18.13
2023-10-06T09:57:03.501Z,18.22
2023-10-06T09:58:06.985Z,18.29
2023-10-06T09:59:15.438Z,18.33
2023-10-06T10:00:19.192Z,18.32
2023-10-06T10:01:25.665Z,18.42
2023-10-06T10:02:31.055Z,18.44
2023-10-06T10:03:35.877Z,18.53
2023-10-06T10:04:38.425Z,18.58
2023-10-06T10:05:41.122Z,18.64
2023-10-06T10:06:46.533Z,18.72
2023-10-06T10:07:51.734Z,18.79
2023-10-06T10:08:53.504Z,18.85
2023-10-06T10:09:55.970Z,18.91
2023-10-06T10:11:01.583Z,18.96
2023-10-06T10:12:24.722Z,19.01
2023-10-06T10:13:40.653Z,19.11
2023-10-06T10:14:50.861Z,19.17
2023-10-06T10:16:12.850Z,19.21
2023-10-06T10:17:19.946Z,19.27
2023-10-06T10:18:30.981Z,19.34
2023-10-06T10:19:33.296Z,19.41
2023-10-06T10:20:35.958Z,19.50
2023-10-06T10:21:38.678Z,19.56
2023-10-06T10:22:42.241Z,19.54
2023-10-06T10:23:45.310Z,19.54
2023-10-06T10:25:53.406Z,19.69
2023-10-06T10:26:56.042Z,19.78
2023-10-06T10:28:19.171Z,19.83
2023-10-06T10:29:20.886Z,19.88
2023-10-06T10:30:42.930Z,19.96
2023-10-06T10:31:59.722Z,20.06
2023-10-06T10:33:07.891Z,20.11
2023-10-06T10:34:24.384Z,20.16
2023-10-06T10:35:27.121Z,20.23
2023-10-06T10:36:28.986Z,20.28
2023-10-06T10:37:32.023Z,20.35
2023-10-06T10:38:34.446Z,20.38
2023-10-06T10:39:52.555Z,20.38
2023-10-06T10:40:54.316Z,20.45
2023-10-06T10:42:00.324Z,20.50
2023-10-06T10:43:07.016Z,20.53
2023-10-06T10:44:25.259Z,20.58
2023-10-06T10:45:32.123Z,20.64
2023-10-06T10:46:46.168Z,20.70
2023-10-06T10:47:50.419Z,20.77
2023-10-06T10:48:54.088Z,20.81
2023-10-06T10:49:57.249Z,20.87
2023-10-06T10:51:01.216Z,20.92
2023-10-06T10:52:06.804Z,21.01
2023-10-06T10:53:08.689Z,21.04
2023-10-06T10:54:12.829Z,21.11
2023-10-06T10:55:14.695Z,21.14
2023-10-06T10:56:38.456Z,21.16
2023-10-06T10:57:46.056Z,21.20
2023-10-06T10:58:49.705Z,21.23
2023-10-06T11:00:01.574Z,21.27
2023-10-06T11:01:24.260Z,21.32
2023-10-06T11:02:35.747Z,21.35
2023-10-06T11:03:38.927Z,21.36
2023-10-06T11:04:42.320Z,21.38
2023-10-06T11:05:45.610Z,21.42
2023-10-06T11:06:50.587Z,21.49
2023-10-06T11:07:59.470Z,21.50
2023-10-06T11:09:14.572Z,21.52
2023-10-06T11:10:17.950Z,21.44
2023-10-06T11:11:20.552Z,21.47
2023-10-06T11:12:25.922Z,21.56
2023-10-06T11:13:44.097Z,21.60
2023-10-06T11:15:04.122Z,21.67
2023-10-06T11:16:06.276Z,21.77
2023-10-06T11:17:09.212Z,21.85
2023-10-06T11:18:14.617Z,21.92
2023-10-06T11:19:17.003Z,21.96
2023-10-06T11:20:24.266Z,21.99
2023-10-06T11:21:26.600Z,22.04
2023-10-06T11:22:29.776Z,22.09
2023-10-06T11:23:45.322Z,22.09
2023-10-06T11:24:47.957Z,22.11
2023-10-06T11:25:51.633Z,22.09
2023-10-06T11:26:53.869Z,22.14
2023-10-06T11:27:57.917Z,22.18
2023-10-06T11:29:01.913Z,22.20
2023-10-06T11:30:09.323Z,22.21
2023-10-06T11:31:13.400Z,22.24
2023-10-06T11:32:15.424Z,22.24
2023-10-06T11:33:20.669Z,22.28
2023-10-06T11:34:22.617Z,22.31
2023-10-06T11:35:24.503Z,22.37
2023-10-06T11:36:27.348Z,22.42
2023-10-06T11:37:30.575Z,22.48
2023-10-06T11:38:33.346Z,22.54
2023-10-06T11:39:35.570Z,22.59
2023-10-06T11:40:37.399Z,22.64
2023-10-06T11:41:39.180Z,22.61
2023-10-06T11:42:42.905Z,22.68
2023-10-06T11:43:54.322Z,22.71
2023-10-06T11:44:56.839Z,22.76
2023-10-06T11:46:06.789Z,22.81
2023-10-06T11:47:08.635Z,22.85
2023-10-06T11:48:32.855Z,22.87
2023-10-06T11:49:34.858Z,22.86
2023-10-06T11:50:36.747Z,22.88
2023-10-06T11:51:42.237Z,22.90
2023-10-06T11:52:47.066Z,22.93
2023-10-06T11:53:48.962Z,22.94
2023-10-06T11:54:50.828Z,22.99
2023-10-06T11:55:54.541Z,23.02
2023-10-06T11:56:58.399Z,23.04
2023-10-06T11:58:06.307Z,23.01
2023-10-06T11:59:19.300Z,23.04
2023-10-06T12:00:34.387Z,23.09
2023-10-06T12:01:39.079Z,23.14
2023-10-06T12:02:48.585Z,23.18
2023-10-06T12:03:50.598Z,23.17
2023-10-06T12:04:52.706Z,23.12
2023-10-06T12:05:56.947Z,23.15
2023-10-06T12:07:02.057Z,23.15
2023-10-06T12:08:10.233Z,23.15
2023-10-06T12:09:24.338Z,23.14
2023-10-06T12:10:26.881Z,23.14
2023-10-06T12:11:28.647Z,23.16
2023-10-06T12:12:30.501Z,23.14
2023-10-06T12:13:33.457Z,23.15
2023-10-06T12:14:36.223Z,23.14
2023-10-06T12:15:38.046Z,23.16
2023-10-06T12:16:39.848Z,23.18
2023-10-06T12:17:42.549Z,23.20
2023-10-06T12:18:45.603Z,23.18
2023-10-06T12:19:47.847Z,23.19
2023-10-06T12:20:49.751Z,23.22
2023-10-06T12:21:52.400Z,23.21
2023-10-06T12:22:55.366Z,23.21
2023-10-06T12:23:57.172Z,23.19
2023-10-06T12:24:59.024Z,23.13
2023-10-06T12:26:01.226Z,23.14
2023-10-06T12:27:04.736Z,23.15
2023-10-06T12:28:06.864Z,23.17
2023-10-06T12:29:08.647Z,23.13
2023-10-06T12:30:19.474Z,23.07
2023-10-06T12:31:24.304Z,23.06
2023-10-06T12:32:26.082Z,23.06
2023-10-06T12:33:27.893Z,23.05
2023-10-06T12:34:29.683Z,23.01
2023-10-06T12:35:31.921Z,23.00
2023-10-06T12:36:33.660Z,23.03
2023-10-06T12:37:36.066Z,23.03
2023-10-06T12:38:37.814Z,23.01
2023-10-06T12:39:39.600Z,22.96
2023-10-06T12:40:42.454Z,22.93
2023-10-06T12:41:47.814Z,22.95
2023-10-06T12:42:49.721Z,22.95
2023-10-06T12:43:51.509Z,22.92
2023-10-06T12:44:54.055Z,22.88
2023-10-06T12:45:55.974Z,22.89
2023-10-06T12:47:05.337Z,22.84
2023-10-06T12:48:09.519Z,22.80
2023-10-06T12:49:11.368Z,22.77
2023-10-06T12:50:18.283Z,22.76
2023-10-06T12:51:20.220Z,22.75
2023-10-06T12:52:22.318Z,22.72
2023-10-06T12:53:24.176Z,22.72
2023-10-06T12:54:27.181Z,22.71
2023-10-06T12:55:30.286Z,22.67
2023-10-06T12:56:32.901Z,22.63
2023-10-06T12:57:36.316Z,22.62
2023-10-06T12:58:38.269Z,22.64
2023-10-06T12:59:40.013Z,22.67
2023-10-06T13:00:42.051Z,22.69
2023-10-06T13:01:43.933Z,22.71
2023-10-06T13:02:45.874Z,22.73
2023-10-06T13:03:48.604Z,22.72
2023-10-06T13:04:50.880Z,22.66
2023-10-06T13:05:53.209Z,22.65
2023-10-06T13:06:55.652Z,22.65
2023-10-06T13:07:59.017Z,22.66
2023-10-06T13:09:03.680Z,22.69
2023-10-06T13:10:08.360Z,22.68
2023-10-06T13:11:11.822Z,22.69
2023-10-06T13:12:13.728Z,22.66
2023-10-06T13:13:18.749Z,22.68
2023-10-06T13:14:20.587Z,22.69
2023-10-06T13:15:22.459Z,22.70
2023-10-06T13:16:25.082Z,22.71
2023-10-06T13:17:29.581Z,22.71
2023-10-06T13:18:32.351Z,22.76
2023-10-06T13:19:34.132Z,22.81
2023-10-06T13:20:36.720Z,22.80
2023-10-06T13:21:38.614Z,22.79
2023-10-06T13:22:41.433Z,22.82
2023-10-06T13:23:44.659Z,22.84
2023-10-06T13:24:46.427Z,22.83
2023-10-06T13:25:48.860Z,22.81
2023-10-06T13:26:50.665Z,22.81
2023-10-06T13:27:52.464Z,22.83
2023-10-06T13:28:54.933Z,22.83
2023-10-06T13:29:57.330Z,22.83
2023-10-06T13:32:02.692Z,22.85
2023-10-06T13:33:05.427Z,22.85
2023-10-06T13:34:09.355Z,22.89
2023-10-06T13:35:17.674Z,22.87
2023-10-06T13:36:19.899Z,22.91
2023-10-06T13:37:24.495Z,22.94
2023-10-06T13:38:27.018Z,22.94
2023-10-06T13:39:29.737Z,22.92
2023-10-06T13:40:31.591Z,22.93
2023-10-06T13:41:33.318Z,22.96
2023-10-06T13:42:35.121Z,22.97
2023-10-06T13:43:36.805Z,23.01
2023-10-06T13:44:38.623Z,23.02
2023-10-06T13:45:44.944Z,23.05
2023-10-06T13:46:46.993Z,23.10
2023-10-06T13:47:50.903Z,23.15
2023-10-06T13:48:52.903Z,23.16
2023-10-06T13:49:56.212Z,23.20
2023-10-06T13:51:01.111Z,23.24
2023-10-06T13:52:02.878Z,23.30
2023-10-06T13:53:04.917Z,23.35
2023-10-06T13:54:08.003Z,23.40
2023-10-06T13:55:12.086Z,23.38